createdAt,value
2022-12-03T00:00:30.071Z,7.93
2022-12-03T00:02:56.979Z,9.07
2022-12-03T00:05:27.404Z,8.98
2022-12-03T00:07:54.162Z,9.05
2022-12-03T00:10:33.291Z,8.98
2022-12-03T00:12:59.930Z,9.20
2022-12-03T00:15:29.947Z,9.10
2022-12-03T00:17:56.913Z,8.20
2022-12-03T00:20:26.922Z,9.45
2022-12-03T00:22:58.785Z,8.57
2022-12-03T00:25:28.318Z,9.10
2022-12-03T00:27:57.199Z,8.82
2022-12-03T00:30:53.401Z,9.02
2022-12-03T00:33:22.698Z,8.15
2022-12-03T00:35:53.962Z,8.98
2022-12-03T00:38:27.612Z,10.15
2022-12-03T00:40:54.282Z,9.23
2022-12-03T00:43:22.944Z,7.40
2022-12-03T00:45:49.693Z,8.35
2022-12-03T00:48:16.333Z,8.65
2022-12-03T00:50:43.287Z,9.68
2022-12-03T00:53:16.847Z,8.68
2022-12-03T00:55:49.026Z,9.43
2022-12-03T01:03:41.835Z,9.18
2022-12-03T01:06:09.544Z,9.45
2022-12-03T01:08:41.946Z,10.68
2022-12-03T01:11:29.402Z,8.70
2022-12-03T01:14:01.818Z,9.32
2022-12-03T01:16:28.618Z,9.30
2022-12-03T01:18:55.317Z,8.63
2022-12-03T01:21:29.906Z,9.15
2022-12-03T01:23:59.196Z,9.85
2022-12-03T01:26:31.870Z,9.38
2022-12-03T01:31:44.240Z,8.70
2022-12-03T01:34:10.914Z,9.45
2022-12-03T01:36:37.544Z,9.60
2022-12-03T01:39:04.595Z,8.38
2022-12-03T01:41:34.393Z,8.65
2022-12-03T01:44:10.804Z,9.98
2022-12-03T01:46:46.645Z,9.27
2022-12-03T01:49:29.335Z,9.35
2022-12-03T01:51:59.249Z,9.13
2022-12-03T01:54:41.486Z,10.25
2022-12-03T01:57:47.638Z,7.97
2022-12-03T02:00:17.717Z,8.82
2022-12-03T02:02:47.937Z,9.95
2022-12-03T02:05:17.351Z,9.43
2022-12-03T02:07:44.568Z,10.25
2022-12-03T02:10:15.713Z,9.77
2022-12-03T02:13:11.862Z,9.32
2022-12-03T02:15:41.922Z,9.48
2022-12-03T02:18:09.463Z,8.55
2022-12-03T02:21:11.496Z,8.98
2022-12-03T02:23:50.471Z,8.85
2022-12-03T02:26:20.916Z,7.93
2022-12-03T02:28:47.980Z,9.40
2022-12-03T02:31:14.787Z,9.75
2022-12-03T02:33:43.251Z,8.93
2022-12-03T02:36:10.955Z,8.88
2022-12-03T02:38:38.190Z,8.15
2022-12-03T02:41:10.154Z,8.57
2022-12-03T02:43:38.091Z,8.65
2022-12-03T02:46:07.188Z,9.05
2022-12-03T02:48:41.123Z,7.85
2022-12-03T02:51:09.307Z,8.40
2022-12-03T02:56:41.794Z,8.50
2022-12-03T02:59:08.580Z,8.48
2022-12-03T03:01:35.363Z,7.90
2022-12-03T03:04:03.881Z,8.65
2022-12-03T03:06:32.066Z,8.43
2022-12-03T03:08:58.763Z,8.23
2022-12-03T03:11:26.010Z,8.73
2022-12-03T03:13:52.862Z,7.90
2022-12-03T03:16:19.575Z,8.45
2022-12-03T03:18:46.194Z,8.75
2022-12-03T03:21:16.706Z,7.72
2022-12-03T03:23:48.894Z,8.45
2022-12-03T03:26:16.028Z,8.02
2022-12-03T03:28:48.517Z,7.90
2022-12-03T03:31:41.315Z,8.70
2022-12-03T03:34:08.487Z,8.85
2022-12-03T03:36:35.658Z,7.97
2022-12-03T03:41:57.049Z,8.95
2022-12-03T03:44:25.260Z,8.63
2022-12-03T03:46:51.896Z,8.07
2022-12-03T03:49:21.445Z,8.85
2022-12-03T03:51:48.438Z,8.50
2022-12-03T03:54:21.040Z,9.05
2022-12-03T03:56:48.086Z,9.05
2022-12-03T03:59:22.334Z,8.38
2022-12-03T04:01:49.238Z,8.23
2022-12-03T04:04:21.592Z,8.18
2022-12-03T04:06:48.528Z,9.75
2022-12-03T04:09:15.217Z,8.63
2022-12-03T04:12:04.948Z,9.13
2022-12-03T04:14:33.878Z,8.60
2022-12-03T04:17:00.646Z,9.45
2022-12-03T04:19:29.897Z,8.57
2022-12-03T04:22:21.352Z,8.95
2022-12-03T04:24:47.937Z,8.48
2022-12-03T04:27:39.314Z,10.15
2022-12-03T04:30:06.414Z,9.45
2022-12-03T04:32:58.678Z,8.98
2022-12-03T04:35:43.746Z,10.03
2022-12-03T04:38:11.739Z,8.85
2022-12-03T04:40:57.337Z,8.25
2022-12-03T04:43:26.174Z,9.15
2022-12-03T04:45:52.926Z,9.32
2022-12-03T04:48:19.766Z,9.57
2022-12-03T04:50:49.688Z,9.90
2022-12-03T04:53:17.751Z,9.40
2022-12-03T04:55:47.780Z,9.65
2022-12-03T04:58:14.430Z,9.88
2022-12-03T05:00:44.207Z,9.55
2022-12-03T05:03:13.133Z,9.90
2022-12-03T05:05:52.198Z,9.40
2022-12-03T05:08:18.814Z,8.95
2022-12-03T05:10:47.565Z,10.50
2022-12-03T05:13:15.854Z,9.38
2022-12-03T05:15:45.559Z,8.60
2022-12-03T05:18:13.184Z,9.90
2022-12-03T05:20:44.731Z,8.75
2022-12-03T05:23:16.161Z,9.68
2022-12-03T05:25:42.918Z,10.88
2022-12-03T05:28:10.174Z,10.07
2022-12-03T05:30:41.329Z,9.93
2022-12-03T05:33:10.244Z,9.93
2022-12-03T05:35:38.930Z,9.80
2022-12-03T05:38:05.566Z,9.77
2022-12-03T05:40:38.213Z,9.95
2022-12-03T05:43:33.812Z,9.68
2022-12-03T05:46:00.939Z,10.90
2022-12-03T05:48:30.884Z,10.30
2022-12-03T05:50:58.482Z,11.57
2022-12-03T05:53:28.500Z,11.32
2022-12-03T05:55:55.263Z,10.65
2022-12-03T05:58:26.104Z,11.40
2022-12-03T06:00:56.830Z,11.40
2022-12-03T06:03:23.786Z,11.60
2022-12-03T06:05:52.113Z,11.00
2022-12-03T06:08:46.993Z,12.00
2022-12-03T06:11:19.637Z,11.40
2022-12-03T06:13:49.861Z,11.75
2022-12-03T06:16:22.830Z,10.85
2022-12-03T06:18:55.061Z,12.07
2022-12-03T06:21:22.950Z,11.85
2022-12-03T06:23:56.953Z,10.98
2022-12-03T06:26:34.650Z,11.07
2022-12-03T06:29:03.354Z,12.13
2022-12-03T06:31:30.011Z,11.70
2022-12-03T06:33:56.948Z,11.43
2022-12-03T06:36:42.527Z,12.80
2022-12-03T06:39:09.505Z,13.13
2022-12-03T06:41:36.142Z,12.13
2022-12-03T06:44:06.473Z,12.90
2022-12-03T06:46:36.346Z,12.73
2022-12-03T06:49:04.700Z,13.23
2022-12-03T06:51:31.823Z,23.02
2022-12-03T06:53:59.053Z,20.60
2022-12-03T06:56:36.839Z,19.38
2022-12-03T06:59:15.362Z,24.33
2022-12-03T07:01:47.423Z,21.85
2022-12-03T07:04:16.823Z,16.70
2022-12-03T07:10:08.459Z,13.50
2022-12-03T07:12:40.734Z,13.55
2022-12-03T07:15:16.859Z,13.70
2022-12-03T07:17:44.385Z,13.50
2022-12-03T07:20:24.776Z,13.48
2022-12-03T07:23:22.804Z,13.45
2022-12-03T07:25:56.642Z,13.80
2022-12-03T07:28:29.727Z,13.98
2022-12-03T07:30:57.998Z,13.88
2022-12-03T07:36:51.722Z,15.45
2022-12-03T07:39:25.386Z,14.23
2022-12-03T07:44:56.211Z,15.35
2022-12-03T07:47:27.857Z,14.93
2022-12-03T07:49:56.548Z,15.00
2022-12-03T07:52:23.197Z,14.25
2022-12-03T07:54:53.035Z,15.40
2022-12-03T07:57:36.094Z,14.38
2022-12-03T08:00:14.014Z,14.85
2022-12-03T08:02:43.510Z,14.25
2022-12-03T08:05:17.456Z,15.00
2022-12-03T08:07:45.191Z,15.10
2022-12-03T08:10:11.925Z,15.38
2022-12-03T08:12:41.967Z,14.65
2022-12-03T08:15:20.350Z,15.30
2022-12-03T08:18:03.854Z,15.73
2022-12-03T08:20:53.250Z,15.38
2022-12-03T08:26:46.511Z,15.93
2022-12-03T08:29:21.815Z,16.60
2022-12-03T08:31:59.055Z,17.73
2022-12-03T08:34:39.942Z,18.95
2022-12-03T08:37:36.089Z,17.23
2022-12-03T08:40:36.580Z,15.80
2022-12-03T08:43:27.105Z,16.40
2022-12-03T08:45:57.554Z,17.25
2022-12-03T08:48:49.773Z,15.57
2022-12-03T09:00:20.884Z,17.17
2022-12-03T09:09:06.774Z,16.48
2022-12-03T09:11:47.270Z,15.68
2022-12-03T09:14:50.712Z,15.60
2022-12-03T09:17:21.956Z,14.93
2022-12-03T09:20:17.401Z,17.40
2022-12-03T09:22:51.024Z,16.30
2022-12-03T09:32:04.623Z,15.82
2022-12-03T09:41:12.576Z,16.13
2022-12-03T09:47:21.308Z,15.82
2022-12-03T09:50:10.933Z,17.05
2022-12-03T09:52:38.305Z,18.60
2022-12-03T09:55:13.778Z,19.73
2022-12-03T10:09:48.971Z,16.73
2022-12-03T10:15:23.694Z,15.10
2022-12-03T10:17:56.029Z,16.33
2022-12-03T10:23:31.689Z,14.75
2022-12-03T10:26:04.992Z,16.20
2022-12-03T10:28:42.484Z,15.98
2022-12-03T10:31:38.718Z,17.10
2022-12-03T10:34:30.099Z,16.65
2022-12-03T10:37:25.401Z,17.08
2022-12-03T10:40:20.293Z,15.57
2022-12-03T10:52:50.353Z,16.13
2022-12-03T10:55:17.785Z,17.17
2022-12-03T10:57:47.497Z,17.77
2022-12-03T11:00:18.332Z,17.65
2022-12-03T11:02:48.308Z,15.98
2022-12-03T11:05:26.688Z,17.23
2022-12-03T11:07:57.181Z,16.45
2022-12-03T11:10:24.699Z,18.98
2022-12-03T11:13:26.135Z,17.15
2022-12-03T11:15:53.791Z,15.27
2022-12-03T11:18:39.202Z,21.80
2022-12-03T11:21:13.589Z,17.25
2022-12-03T11:23:46.452Z,15.18
2022-12-03T11:26:38.666Z,15.13
2022-12-03T11:29:13.666Z,16.55
2022-12-03T11:31:45.923Z,16.60
2022-12-03T11:34:19.700Z,16.63
2022-12-03T11:37:13.995Z,15.65
2022-12-03T11:39:50.133Z,15.98
2022-12-03T11:42:24.636Z,14.88
2022-12-03T11:45:31.375Z,13.93
2022-12-03T11:48:12.007Z,13.70
2022-12-03T11:50:52.882Z,15.80
2022-12-03T11:53:29.257Z,16.20
2022-12-03T11:56:08.117Z,15.82
2022-12-03T11:58:38.749Z,13.52
2022-12-03T12:01:08.409Z,14.38
2022-12-03T12:03:35.458Z,16.15
2022-12-03T12:06:12.596Z,16.15
2022-12-03T12:09:04.468Z,14.20
2022-12-03T12:11:36.649Z,15.20
2022-12-03T12:14:04.296Z,15.88
2022-12-03T12:16:52.411Z,27.05
2022-12-03T12:19:32.033Z,18.00
2022-12-03T12:22:30.117Z,29.95
2022-12-03T12:25:21.947Z,17.13
2022-12-03T12:27:53.058Z,16.00
2022-12-03T12:30:21.460Z,13.73
2022-12-03T12:33:13.188Z,16.60
2022-12-03T12:35:44.816Z,20.42
2022-12-03T12:38:15.971Z,15.77
2022-12-03T12:40:55.178Z,23.13
2022-12-03T12:43:31.869Z,14.27
2022-12-03T12:46:46.089Z,14.77
2022-12-03T12:49:02.228Z,18.17
2022-12-03T12:51:28.989Z,21.95
2022-12-03T12:54:02.546Z,16.77
2022-12-03T12:56:31.222Z,15.57
2022-12-03T12:59:14.678Z,12.35
2022-12-03T13:01:43.853Z,11.25
2022-12-03T13:04:14.699Z,11.23
2022-12-03T13:06:41.917Z,11.93
2022-12-03T13:09:30.870Z,13.30
2022-12-03T13:12:03.359Z,13.57
2022-12-03T13:14:37.644Z,14.93
2022-12-03T13:17:25.998Z,13.30
2022-12-03T13:20:23.035Z,18.63
2022-12-03T13:22:50.988Z,17.40
2022-12-03T13:26:22.308Z,14.05
2022-12-03T13:28:42.667Z,19.40
2022-12-03T13:40:36.862Z,18.17
2022-12-03T13:43:18.278Z,15.55
2022-12-03T13:45:49.754Z,29.73
2022-12-03T13:48:29.386Z,15.07
2022-12-03T13:50:57.301Z,31.52
2022-12-03T13:53:32.790Z,15.68
2022-12-03T13:56:27.209Z,14.68
2022-12-03T13:58:54.677Z,21.42
2022-12-03T14:01:21.400Z,13.70
2022-12-03T14:04:11.962Z,19.25
2022-12-03T14:06:40.861Z,11.93
2022-12-03T14:09:10.415Z,15.80
2022-12-03T14:11:59.185Z,24.70
2022-12-03T14:14:25.881Z,21.08
2022-12-03T14:16:59.491Z,17.38
2022-12-03T14:21:56.096Z,10.98
2022-12-03T14:24:22.750Z,12.50
2022-12-03T14:26:52.416Z,13.20
2022-12-03T14:29:19.046Z,11.85
2022-12-03T14:31:45.783Z,11.85
2022-12-03T14:34:15.178Z,11.85
2022-12-03T14:36:41.937Z,12.77
2022-12-03T14:39:08.545Z,12.30
2022-12-03T14:41:56.324Z,11.93
2022-12-03T14:44:24.779Z,11.95
2022-12-03T14:46:56.599Z,11.27
2022-12-03T14:49:24.223Z,12.40
2022-12-03T14:51:50.950Z,12.23
2022-12-03T14:54:17.813Z,12.02
2022-12-03T14:56:44.487Z,12.70
2022-12-03T14:59:20.695Z,12.30
2022-12-03T15:01:51.819Z,11.77
2022-12-03T15:04:18.813Z,11.65
2022-12-03T15:06:45.684Z,11.43
2022-12-03T15:09:13.117Z,12.07
2022-12-03T15:11:45.961Z,11.90
2022-12-03T15:14:17.316Z,11.27
2022-12-03T15:16:44.065Z,12.23
2022-12-03T15:19:15.184Z,11.80
2022-12-03T15:22:09.425Z,13.23
2022-12-03T15:24:36.103Z,19.95
2022-12-03T15:27:02.808Z,22.88
2022-12-03T15:29:29.736Z,16.00
2022-12-03T15:31:59.218Z,15.43
2022-12-03T15:34:29.273Z,14.23
2022-12-03T15:36:58.167Z,23.70
2022-12-03T15:39:25.089Z,14.32
2022-12-03T15:41:51.672Z,14.23
2022-12-03T15:44:18.360Z,17.65
2022-12-03T15:46:46.911Z,14.23
2022-12-03T15:49:30.971Z,13.65
2022-12-03T15:51:58.192Z,15.48
2022-12-03T15:54:49.914Z,17.13
2022-12-03T15:57:25.251Z,13.05
2022-12-03T15:59:52.383Z,14.82
2022-12-03T16:02:21.675Z,15.35
2022-12-03T16:04:48.557Z,22.17
2022-12-03T16:07:25.309Z,15.50
2022-12-03T16:09:53.781Z,14.93
2022-12-03T16:12:24.386Z,24.47
2022-12-03T16:14:53.760Z,29.15
2022-12-03T16:17:20.576Z,41.63
2022-12-03T16:19:48.764Z,21.30
2022-12-03T16:22:21.437Z,26.38
2022-12-03T16:27:45.714Z,19.20
2022-12-03T16:30:15.486Z,21.15
2022-12-03T16:32:42.303Z,18.52
2022-12-03T16:35:09.114Z,14.32
2022-12-03T16:38:00.607Z,14.50
2022-12-03T16:40:33.227Z,14.30
2022-12-03T16:43:03.924Z,14.90
2022-12-03T16:45:53.295Z,14.85
2022-12-03T16:48:20.087Z,13.23
2022-12-03T16:50:46.804Z,12.63
2022-12-03T16:53:16.632Z,13.35
2022-12-03T16:55:43.308Z,13.63
2022-12-03T16:58:20.651Z,13.90
2022-12-03T17:00:53.462Z,12.60
2022-12-03T17:05:57.220Z,15.02
2022-12-03T17:08:26.082Z,14.60
2022-12-03T17:10:55.872Z,14.80
2022-12-03T17:13:22.744Z,39.40
2022-12-03T17:15:50.322Z,20.02
2022-12-03T17:18:17.177Z,13.93
2022-12-03T17:20:46.715Z,16.05
2022-12-03T17:23:14.307Z,15.48
2022-12-03T17:25:44.357Z,12.65
2022-12-03T17:28:36.376Z,13.45
2022-12-03T17:31:12.344Z,12.45
2022-12-03T17:33:42.154Z,13.63
2022-12-03T17:36:13.619Z,13.75
2022-12-03T17:38:40.281Z,12.95
2022-12-03T17:41:10.230Z,13.65
2022-12-03T17:43:37.129Z,12.95
2022-12-03T17:46:05.928Z,15.68
2022-12-03T17:48:34.029Z,12.32
2022-12-03T17:51:01.001Z,13.77
2022-12-03T17:53:28.683Z,13.80
2022-12-03T17:55:58.488Z,14.07
2022-12-03T17:58:33.398Z,13.68
2022-12-03T18:01:08.079Z,15.15
2022-12-03T18:03:34.797Z,13.48
2022-12-03T18:06:09.169Z,12.52
2022-12-03T18:08:37.041Z,13.75
2022-12-03T18:11:03.834Z,11.55
2022-12-03T18:13:30.573Z,12.85
2022-12-03T18:15:58.439Z,12.85
2022-12-03T18:18:25.325Z,12.88
2022-12-03T18:20:53.445Z,12.23
2022-12-03T18:23:22.090Z,12.85
2022-12-03T18:25:51.040Z,13.90
2022-12-03T18:28:18.811Z,13.02
2022-12-03T18:30:52.654Z,13.95
2022-12-03T18:33:44.416Z,11.20
2022-12-03T18:36:29.201Z,12.07
2022-12-03T18:38:59.851Z,12.98
2022-12-03T18:41:53.496Z,12.85
2022-12-03T18:44:22.526Z,12.35
2022-12-03T18:46:54.169Z,11.90
2022-12-03T18:49:25.405Z,12.57
2022-12-03T18:51:57.489Z,13.30
2022-12-03T18:54:26.452Z,11.88
2022-12-03T18:56:58.465Z,12.32
2022-12-03T18:59:25.766Z,13.77
2022-12-03T19:01:52.491Z,13.45
2022-12-03T19:04:20.415Z,12.70
2022-12-03T19:06:53.551Z,12.35
2022-12-03T19:09:20.275Z,12.38
2022-12-03T19:11:49.170Z,11.23
2022-12-03T19:14:15.834Z,12.95
2022-12-03T19:16:44.427Z,12.57
2022-12-03T19:19:14.547Z,11.82
2022-12-03T19:22:06.820Z,13.48
2022-12-03T19:24:37.711Z,12.53
2022-12-03T19:27:04.382Z,12.98
2022-12-03T19:29:35.557Z,13.25
2022-12-03T19:32:03.494Z,12.98
2022-12-03T19:34:31.474Z,14.23
2022-12-03T19:36:58.278Z,12.43
2022-12-03T19:39:27.042Z,14.70
2022-12-03T19:41:53.694Z,13.43
2022-12-03T19:44:24.760Z,12.15
2022-12-03T19:46:52.148Z,12.63
2022-12-03T19:49:20.578Z,13.95
2022-12-03T19:51:51.415Z,14.50
2022-12-03T19:54:18.691Z,21.58
2022-12-03T19:56:45.692Z,20.38
2022-12-03T20:02:06.355Z,15.23
2022-12-03T20:04:34.441Z,17.73
2022-12-03T20:09:53.684Z,13.32
2022-12-03T20:12:22.475Z,14.23
2022-12-03T20:14:49.460Z,14.25
2022-12-03T20:17:18.656Z,14.18
2022-12-03T20:19:50.700Z,14.30
2022-12-03T20:22:18.044Z,13.70
2022-12-03T20:24:46.873Z,12.82
2022-12-03T20:27:22.796Z,13.70
2022-12-03T20:29:55.589Z,12.98
2022-12-03T20:32:22.437Z,12.40
2022-12-03T20:34:51.150Z,14.05
2022-12-03T20:37:21.657Z,13.25
2022-12-03T20:39:53.541Z,13.73
2022-12-03T20:42:20.445Z,13.57
2022-12-03T20:44:53.409Z,12.95
2022-12-03T20:47:25.980Z,13.13
2022-12-03T20:49:52.755Z,13.68
2022-12-03T20:52:21.663Z,14.40
2022-12-03T20:54:48.348Z,12.95
2022-12-03T20:57:19.131Z,13.45
2022-12-03T20:59:49.251Z,14.23
2022-12-03T21:02:16.091Z,14.48
2022-12-03T21:04:42.964Z,14.02
2022-12-03T21:07:11.847Z,13.60
2022-12-03T21:09:40.290Z,14.82
2022-12-03T21:12:07.002Z,14.45
2022-12-03T21:14:37.166Z,14.68
2022-12-03T21:17:09.607Z,14.07
2022-12-03T21:22:13.174Z,12.18
2022-12-03T21:24:44.255Z,12.98
2022-12-03T21:27:11.268Z,13.18
2022-12-03T21:29:43.440Z,13.20
2022-12-03T21:32:11.649Z,13.55
2022-12-03T21:34:42.273Z,15.02
2022-12-03T21:37:09.199Z,13.48
2022-12-03T21:40:02.933Z,12.57
2022-12-03T21:42:35.375Z,13.00
2022-12-03T21:45:07.658Z,13.07
2022-12-03T21:47:37.890Z,13.80
2022-12-03T21:50:10.394Z,14.38
2022-12-03T21:52:40.481Z,12.82
2022-12-03T21:55:07.608Z,18.98
2022-12-03T21:57:35.194Z,31.85
2022-12-03T22:00:08.626Z,22.85
2022-12-03T22:02:41.413Z,17.77
2022-12-03T22:05:09.911Z,20.65
2022-12-03T22:07:41.923Z,14.35
2022-12-03T22:10:10.597Z,19.00
2022-12-03T22:12:41.264Z,12.57
2022-12-03T22:17:46.158Z,12.55
2022-12-03T22:20:16.770Z,12.18
2022-12-03T22:22:45.321Z,11.23
2022-12-03T22:25:14.603Z,11.50
2022-12-03T22:27:43.693Z,11.52
2022-12-03T22:30:15.677Z,12.45
2022-12-03T22:32:42.342Z,11.38
2022-12-03T22:35:11.712Z,11.25
2022-12-03T22:37:38.385Z,11.77
2022-12-03T22:40:05.680Z,10.93
2022-12-03T22:42:32.504Z,11.57
2022-12-03T22:45:01.275Z,11.48
2022-12-03T22:47:30.305Z,10.70
2022-12-03T22:49:57.315Z,11.40
2022-12-03T22:52:24.105Z,12.20
2022-12-03T22:54:55.134Z,12.05
2022-12-03T22:57:21.858Z,13.02
2022-12-03T22:59:48.736Z,11.25
2022-12-03T23:02:18.114Z,11.45
2022-12-03T23:04:44.856Z,12.13
2022-12-03T23:07:11.685Z,10.68
2022-12-03T23:09:38.506Z,10.02
2022-12-03T23:12:06.675Z,10.50
2022-12-03T23:14:33.266Z,10.15
2022-12-03T23:17:02.208Z,10.57
2022-12-03T23:19:29.034Z,11.57
2022-12-03T23:21:57.858Z,10.95
2022-12-03T23:24:24.464Z,12.18
2022-12-03T23:26:51.494Z,11.20
2022-12-03T23:29:18.141Z,11.40
2022-12-03T23:31:48.434Z,11.10
2022-12-03T23:34:15.209Z,12.05
2022-12-03T23:36:42.101Z,11.77
2022-12-03T23:39:34.242Z,11.95
2022-12-03T23:42:04.463Z,11.82
2022-12-03T23:44:35.302Z,10.85
2022-12-03T23:47:02.088Z,11.10
2022-12-03T23:49:28.912Z,11.82
2022-12-03T23:51:55.639Z,11.20
2022-12-03T23:54:22.547Z,10.95
2022-12-03T23:56:54.254Z,10.85
2022-12-03T23:59:20.889Z,10.30
